Terminal Aerodrome Forecast
Issued by NWS

Home | Current Version | Previous Version | Text Only | Print | Product List | Glossary On
Versions: 1 2 3 4 5 6 7 8 9 10 11 12 13 14 15 16 17 18 19 20 21 22 23 24
540
FTUS43 KSGF 171120
TAFBBG
TAF
KBBG 171120Z 1712/1812 23006KT P6SM SCT030 BKN100
      TEMPO 1712/1714 BKN020
     FM171700 28008KT P6SM SCT100
     FM180000 29004KT P6SM SKC=

USA.gov is the U.S. government's official web portal to all federal, state and local government web resources and services.